Time;durP1;ratioP1;P1;durP2;ratioP2;P2;SDS_P1;SDS_P2;PMS_P1;PMS_P2;Temp;Humidity;BMP_temperature;BMP_pressure;BME280_temperature;BME280_humidity;BME280_pressure;Samples;Min_cycle;Max_cycle;Signal;HPM_P1;HPM_P2
2022/05/28 00:00:21;;;;;;;0.90;0.60;;;15.70;1.00;;;;;;5115207;28;20867;-57
2022/05/28 00:02:48;;;;;;;0.80;0.50;;;15.70;1.00;;;;;;5114673;28;20464;-57
2022/05/28 00:05:16;;;;;;;0.90;0.50;;;15.70;99.90;;;;;;5116853;28;20444;-58
2022/05/28 00:07:43;;;;;;;2.43;0.63;;;15.60;99.90;;;;;;5115333;28;20465;-57
2022/05/28 00:10:13;;;;;;;2.10;0.60;;;15.60;99.90;;;;;;5116886;28;20471;-57
2022/05/28 00:12:41;;;;;;;1.50;0.60;;;15.60;1.00;;;;;;5116540;28;20756;-57
2022/05/28 00:15:09;;;;;;;0.83;0.57;;;15.50;1.00;;;;;;5116424;28;20579;-56
2022/05/28 00:17:36;;;;;;;1.60;0.60;;;15.40;1.00;;;;;;5114852;28;20551;-56
2022/05/28 00:20:04;;;;;;;2.70;0.80;;;15.40;99.90;;;;;;5116115;28;20444;-57
2022/05/28 00:22:31;;;;;;;1.00;0.70;;;15.40;1.00;;;;;;5110151;28;20448;-57
2022/05/28 00:24:58;;;;;;;0.90;0.60;;;15.30;1.00;;;;;;5114733;28;20543;-57
2022/05/28 00:27:25;;;;;;;1.10;0.60;;;15.10;1.00;;;;;;5115265;28;20540;-58
2022/05/28 00:29:54;;;;;;;0.80;0.50;;;15.10;1.00;;;;;;5115012;28;20540;-57
2022/05/28 00:32:20;;;;;;;2.50;0.80;;;14.90;1.00;;;;;;5115322;28;20465;-56
2022/05/28 00:34:48;;;;;;;4.50;0.70;;;14.80;1.00;;;;;;5115172;28;20603;-57
2022/05/28 00:37:14;;;;;;;1.20;0.70;;;14.70;7.60;;;;;;5115878;28;20747;-57
2022/05/28 00:39:41;;;;;;;1.50;0.70;;;14.70;13.40;;;;;;5115684;28;20536;-57
2022/05/28 00:42:09;;;;;;;2.33;0.50;;;14.70;18.80;;;;;;5116824;28;20444;-58
2022/05/28 00:44:36;;;;;;;8.43;0.77;;;14.70;20.90;;;;;;5114620;27;20564;-58
2022/05/28 00:47:06;;;;;;;1.00;0.70;;;14.60;10.60;;;;;;5115834;28;20444;-58
2022/05/28 00:49:33;;;;;;;1.30;0.70;;;14.50;1.00;;;;;;5115649;28;20562;-58
2022/05/28 00:52:02;;;;;;;0.80;0.60;;;14.60;1.00;;;;;;5113027;28;20935;-58
2022/05/28 00:54:33;;;;;;;3.37;0.70;;;14.70;1.00;;;;;;5114967;28;20591;-58
2022/05/28 00:57:02;;;;;;;1.73;0.70;;;14.60;1.00;;;;;;5113748;28;20449;-58
2022/05/28 00:59:29;;;;;;;1.10;0.70;;;14.60;1.00;;;;;;5113938;28;20559;-57
2022/05/28 01:02:01;;;;;;;3.23;0.73;;;14.40;1.00;;;;;;5113376;28;20555;-58
2022/05/28 01:04:36;;;;;;;1.90;0.67;;;14.20;19.50;;;;;;5114461;28;20914;-58
2022/05/28 01:07:11;;;;;;;1.23;0.60;;;14.30;1.00;;;;;;5113810;28;20559;-58
2022/05/28 01:09:46;;;;;;;0.70;0.60;;;14.50;1.00;;;;;;5115237;28;20829;-58
2022/05/28 01:12:16;;;;;;;1.27;0.60;;;14.60;1.00;;;;;;5113166;28;20697;-57
2022/05/28 01:14:49;;;;;;;4.43;0.50;;;14.70;1.00;;;;;;5114492;28;20472;-58
2022/05/28 01:17:19;;;;;;;1.00;0.60;;;14.80;1.00;;;;;;5114136;28;20455;-58
2022/05/28 01:19:59;;;;;;;1.63;0.53;;;14.80;99.90;;;;;;5113752;28;20523;-58
2022/05/28 01:22:38;;;;;;;2.50;0.77;;;14.80;99.90;;;;;;5110536;28;20511;-58
2022/05/28 01:25:15;;;;;;;2.30;0.70;;;14.80;99.90;;;;;;5113651;28;20539;-58
2022/05/28 01:27:49;;;;;;;0.90;0.60;;;14.80;1.00;;;;;;5115361;28;20568;-57
2022/05/28 01:30:18;;;;;;;1.30;0.60;;;14.60;1.00;;;;;;5115150;28;20834;-57
2022/05/28 01:32:48;;;;;;;3.40;0.63;;;14.50;91.10;;;;;;5113632;28;20976;-58
2022/05/28 01:35:18;;;;;;;4.97;0.80;;;14.60;99.90;;;;;;5107069;28;20476;-57
2022/05/28 01:37:48;;;;;;;1.33;0.60;;;14.40;99.90;;;;;;5109295;28;20484;-60
2022/05/28 01:40:17;;;;;;;1.37;0.60;;;14.40;1.00;;;;;;5116027;28;20460;-59
2022/05/28 01:42:49;;;;;;;1.20;0.57;;;14.30;1.00;;;;;;5114467;28;20497;-57
2022/05/28 01:45:20;;;;;;;4.07;0.80;;;14.10;1.00;;;;;;5115325;28;20445;-59
2022/05/28 01:47:50;;;;;;;1.33;0.60;;;14.00;27.00;;;;;;5114838;28;20926;-58
2022/05/28 01:50:21;;;;;;;2.50;0.50;;;14.00;1.00;;;;;;5114965;28;20528;-59
2022/05/28 01:52:49;;;;;;;1.87;0.60;;;14.10;1.00;;;;;;5111803;28;20576;-59
2022/05/28 01:55:18;;;;;;;1.10;0.57;;;14.20;1.00;;;;;;5113959;28;21262;-59
2022/05/28 01:57:46;;;;;;;1.10;0.50;;;14.40;99.90;;;;;;5114108;28;20555;-59
2022/05/28 02:00:14;;;;;;;0.87;0.57;;;14.30;99.90;;;;;;5113646;28;20547;-59
2022/05/28 02:02:41;;;;;;;0.93;0.50;;;14.20;99.90;;;;;;5115215;28;20551;-59
2022/05/28 02:05:10;;;;;;;1.53;0.60;;;14.20;1.00;;;;;;5115964;28;20527;-59
2022/05/28 02:07:37;;;;;;;3.33;0.40;;;14.20;99.90;;;;;;5115238;28;20556;-59
2022/05/28 02:10:07;;;;;;;2.00;0.50;;;14.20;99.90;;;;;;5115004;28;20906;-59
2022/05/28 02:12:44;;;;;;;1.00;0.60;;;14.20;1.00;;;;;;5117821;27;20536;-60
2022/05/28 02:15:25;;;;;;;4.10;0.60;;;14.20;1.00;;;;;;5138012;27;20480;-59
2022/05/28 02:17:54;;;;;;;3.30;0.50;;;14.10;99.90;;;;;;5139928;27;20816;-59
2022/05/28 02:20:30;;;;;;;1.87;0.70;;;14.00;1.00;;;;;;5131318;27;20546;-59
2022/05/28 02:23:04;;;;;;;1.00;0.40;;;13.90;1.00;;;;;;5139618;27;20457;-59
2022/05/28 02:25:37;;;;;;;0.83;0.40;;;13.90;1.00;;;;;;5140340;27;20534;-59
2022/05/28 02:28:08;;;;;;;1.33;0.50;;;14.00;56.60;;;;;;5134631;27;20837;-59
2022/05/28 02:30:46;;;;;;;0.57;0.40;;;14.00;29.80;;;;;;5136710;27;20539;-58
2022/05/28 02:33:13;;;;;;;0.70;0.40;;;13.90;1.00;;;;;;5138671;27;20483;-58
2022/05/28 02:35:40;;;;;;;1.20;0.40;;;14.00;26.30;;;;;;5137962;27;20475;-58
2022/05/28 02:38:08;;;;;;;0.60;0.50;;;13.80;99.90;;;;;;5130463;27;20562;-59
2022/05/28 02:40:34;;;;;;;0.70;0.40;;;13.80;99.90;;;;;;5138511;27;20448;-57
2022/05/28 02:43:01;;;;;;;1.17;0.50;;;13.70;1.00;;;;;;5139026;27;20491;-59
2022/05/28 02:45:28;;;;;;;2.93;0.30;;;13.70;99.90;;;;;;5137638;27;20550;-59
2022/05/28 02:47:57;;;;;;;1.87;0.40;;;13.70;99.90;;;;;;5131544;27;20958;-59
2022/05/28 02:50:26;;;;;;;1.80;0.40;;;13.70;99.90;;;;;;5138738;27;20443;-59
2022/05/28 02:52:53;;;;;;;0.90;0.40;;;13.60;99.90;;;;;;5137317;27;20451;-59
2022/05/28 02:55:20;;;;;;;1.53;0.40;;;13.60;99.90;;;;;;5130751;27;20899;-59
2022/05/28 02:57:47;;;;;;;3.83;0.40;;;13.60;1.00;;;;;;5136776;27;20538;-59
2022/05/28 03:00:15;;;;;;;1.77;0.43;;;13.50;99.90;;;;;;5137541;27;20542;-59
2022/05/28 03:02:43;;;;;;;6.00;0.50;;;13.40;1.00;;;;;;5132570;27;20464;-59
2022/05/28 03:05:13;;;;;;;1.37;0.47;;;13.50;1.00;;;;;;5129333;27;20546;-59
2022/05/28 03:07:40;;;;;;;1.20;0.40;;;13.50;1.00;;;;;;5137393;27;20551;-59
2022/05/28 03:10:07;;;;;;;4.67;0.40;;;13.50;1.00;;;;;;5138421;27;20534;-58
2022/05/28 03:12:34;;;;;;;1.00;0.40;;;13.60;1.00;;;;;;5137201;27;20455;-59
2022/05/28 03:15:01;;;;;;;1.67;0.30;;;13.70;1.00;;;;;;5137475;27;20542;-59
2022/05/28 03:17:27;;;;;;;1.30;0.33;;;13.50;1.00;;;;;;5137284;27;20534;-59
2022/05/28 03:19:54;;;;;;;1.03;0.40;;;13.40;99.90;;;;;;5137893;27;20542;-59
2022/05/28 03:22:22;;;;;;;0.90;0.30;;;13.20;99.90;;;;;;5138118;27;20542;-59
2022/05/28 03:24:49;;;;;;;2.40;0.40;;;12.90;1.00;;;;;;5138207;27;20537;-59
2022/05/28 03:27:16;;;;;;;1.90;0.50;;;12.80;1.00;;;;;;5136989;27;20836;-58
2022/05/28 03:29:43;;;;;;;1.47;0.40;;;12.60;1.00;;;;;;5136288;27;20460;-59
2022/05/28 03:32:10;;;;;;;2.33;0.40;;;12.40;1.00;;;;;;5137395;27;20583;-58
2022/05/28 03:34:37;;;;;;;1.23;0.40;;;12.40;99.90;;;;;;5137548;27;20858;-59
2022/05/28 03:37:04;;;;;;;1.03;0.50;;;12.50;15.20;;;;;;5137195;27;20483;-59
2022/05/28 03:39:33;;;;;;;1.27;0.30;;;12.50;1.00;;;;;;5118824;27;20551;-59
2022/05/28 03:41:59;;;;;;;1.03;0.40;;;12.70;1.00;;;;;;5138034;27;20447;-58
2022/05/28 03:44:26;;;;;;;1.20;0.40;;;13.00;1.00;;;;;;5137868;27;20957;-58
2022/05/28 03:46:53;;;;;;;2.20;0.40;;;13.10;1.00;;;;;;5136135;27;20444;-58
2022/05/28 03:49:22;;;;;;;0.80;0.40;;;12.90;1.00;;;;;;5127457;27;21099;-59
2022/05/28 03:51:49;;;;;;;0.53;0.37;;;13.00;1.00;;;;;;5130897;27;20452;-58
2022/05/28 03:54:16;;;;;;;2.30;0.40;;;13.00;1.00;;;;;;5117904;27;20496;-58
2022/05/28 03:56:46;;;;;;;1.00;0.30;;;12.70;99.90;;;;;;5111147;27;20562;-59
2022/05/28 03:59:14;;;;;;;1.20;0.30;;;12.60;1.00;;;;;;5136142;27;20899;-58
2022/05/28 04:01:41;;;;;;;1.17;0.40;;;12.50;1.00;;;;;;5137589;27;20447;-59
2022/05/28 04:04:08;;;;;;;1.17;0.30;;;12.40;99.90;;;;;;5137525;27;20557;-59
2022/05/28 04:06:37;;;;;;;1.77;0.43;;;12.40;99.90;;;;;;5115659;27;20555;-59
2022/05/28 04:09:05;;;;;;;0.90;0.30;;;12.30;1.00;;;;;;5118434;28;20479;-57
2022/05/28 04:11:32;;;;;;;1.90;0.33;;;12.30;1.00;;;;;;5117584;28;20537;-58
2022/05/28 04:14:00;;;;;;;1.67;0.30;;;12.30;1.00;;;;;;5116901;28;20462;-59
2022/05/28 04:16:28;;;;;;;1.20;0.30;;;12.40;1.00;;;;;;5116632;27;20578;-58
2022/05/28 04:18:55;;;;;;;0.60;0.30;;;12.40;99.90;;;;;;5117409;27;20456;-58
2022/05/28 04:21:21;;;;;;;3.93;0.40;;;12.50;2.30;;;;;;5118258;27;20839;-59
2022/05/28 04:23:48;;;;;;;1.43;0.40;;;12.70;1.00;;;;;;5110079;27;20552;-59
2022/05/28 04:26:15;;;;;;;3.90;0.50;;;12.70;1.00;;;;;;5135834;27;20883;-59
2022/05/28 04:28:42;;;;;;;0.77;0.33;;;12.90;1.00;;;;;;5136806;27;20549;-59
2022/05/28 04:31:10;;;;;;;2.20;0.43;;;12.80;1.00;;;;;;5136663;27;20567;-58
2022/05/28 04:33:37;;;;;;;1.50;0.30;;;12.40;1.00;;;;;;5123010;27;20590;-59
2022/05/28 04:36:04;;;;;;;2.03;0.30;;;12.40;1.00;;;;;;5115360;27;20575;-59
2022/05/28 04:38:31;;;;;;;1.07;0.33;;;12.50;1.00;;;;;;5116798;27;20821;-59
2022/05/28 04:40:58;;;;;;;0.60;0.40;;;12.60;1.00;;;;;;5108736;28;20563;-59
2022/05/28 04:43:25;;;;;;;0.87;0.43;;;12.70;1.00;;;;;;5117357;28;20462;-59
2022/05/28 04:45:52;;;;;;;2.20;0.30;;;12.50;99.90;;;;;;5117305;28;20531;-59
2022/05/28 04:48:20;;;;;;;0.83;0.30;;;12.60;99.90;;;;;;5115983;28;20563;-57
2022/05/28 04:50:47;;;;;;;2.00;0.30;;;12.40;99.90;;;;;;5108667;27;20448;-58
2022/05/28 04:53:14;;;;;;;1.00;0.30;;;12.20;99.90;;;;;;5114992;27;20768;-59
2022/05/28 04:55:41;;;;;;;3.10;0.40;;;12.30;1.00;;;;;;5109058;27;20487;-58
2022/05/28 04:58:10;;;;;;;3.53;0.50;;;12.40;1.00;;;;;;5117259;28;20551;-58
2022/05/28 05:00:37;;;;;;;1.90;0.40;;;12.40;99.90;;;;;;5117180;28;20455;-59
2022/05/28 05:03:04;;;;;;;1.53;0.40;;;12.00;1.00;;;;;;5113919;28;20554;-58
2022/05/28 05:05:33;;;;;;;0.80;0.40;;;12.10;76.50;;;;;;5133774;27;20539;-58
2022/05/28 05:08:00;;;;;;;2.20;0.67;;;12.30;1.00;;;;;;5135644;27;20882;-59
2022/05/28 05:10:27;;;;;;;1.40;0.30;;;12.60;1.00;;;;;;5135308;27;20539;-57
2022/05/28 05:12:54;;;;;;;0.70;0.33;;;12.80;1.00;;;;;;5129369;27;20463;-58
2022/05/28 05:15:21;;;;;;;1.90;0.40;;;12.90;99.90;;;;;;5135582;27;20538;-58
2022/05/28 05:17:50;;;;;;;3.13;0.33;;;12.90;99.90;;;;;;5135640;27;20456;-58
2022/05/28 05:20:17;;;;;;;2.00;0.30;;;12.80;99.90;;;;;;5133271;27;20538;-57
2022/05/28 05:22:46;;;;;;;1.70;0.50;;;12.50;99.90;;;;;;5120638;27;20543;-55
2022/05/28 05:25:15;;;;;;;0.80;0.40;;;12.30;1.00;;;;;;5116565;28;20454;-59
2022/05/28 05:27:43;;;;;;;2.30;0.40;;;12.50;1.00;;;;;;5116562;28;20484;-56
2022/05/28 05:30:11;;;;;;;2.73;0.53;;;12.70;1.00;;;;;;5115599;28;20489;-58
2022/05/28 05:32:38;;;;;;;2.83;0.40;;;12.70;1.00;;;;;;5116776;27;20575;-59
2022/05/28 05:35:06;;;;;;;3.97;0.60;;;12.80;1.00;;;;;;5096434;28;20460;-59
2022/05/28 05:37:33;;;;;;;0.80;0.50;;;12.90;99.90;;;;;;5094430;28;20481;-58
2022/05/28 05:40:04;;;;;;;0.93;0.40;;;13.00;99.90;;;;;;5098531;28;20461;-59
2022/05/28 05:42:31;;;;;;;2.20;0.33;;;13.00;99.90;;;;;;5113428;28;20440;-58
2022/05/28 05:44:58;;;;;;;4.83;0.47;;;13.00;99.90;;;;;;5098261;28;20453;-58
2022/05/28 05:47:25;;;;;;;3.53;0.43;;;12.80;99.90;;;;;;5101105;28;20445;-58
2022/05/28 05:49:52;;;;;;;4.00;0.50;;;12.80;99.90;;;;;;5097383;28;20433;-58
2022/05/28 05:52:19;;;;;;;1.40;0.40;;;12.90;1.00;;;;;;5107770;28;20860;-58
2022/05/28 05:54:46;;;;;;;3.00;0.47;;;12.90;99.90;;;;;;5118260;27;20528;-58
2022/05/28 05:57:14;;;;;;;1.50;0.40;;;13.00;99.90;;;;;;5098432;28;20492;-58
2022/05/28 05:59:41;;;;;;;3.20;0.30;;;12.80;99.90;;;;;;5115136;27;20452;-59
2022/05/28 06:02:08;;;;;;;4.20;0.40;;;12.80;1.00;;;;;;5109626;27;20468;-58
2022/05/28 06:04:35;;;;;;;0.60;0.30;;;12.90;99.90;;;;;;5097577;28;20461;-58
2022/05/28 06:07:05;;;;;;;1.70;0.30;;;13.00;99.90;;;;;;5098030;28;20960;-58
2022/05/28 06:09:32;;;;;;;1.67;0.40;;;13.20;99.90;;;;;;5109133;27;20543;-58
2022/05/28 06:11:59;;;;;;;1.67;0.37;;;13.40;99.90;;;;;;5102264;28;20544;-58
2022/05/28 06:14:27;;;;;;;4.03;0.40;;;13.50;99.90;;;;;;5096617;28;20457;-59
2022/05/28 06:16:54;;;;;;;2.60;0.40;;;13.50;99.90;;;;;;5117924;28;20938;-59
2022/05/28 06:19:21;;;;;;;3.83;0.40;;;13.30;91.50;;;;;;5116079;27;21005;-59
2022/05/28 06:21:48;;;;;;;0.93;0.30;;;13.20;99.90;;;;;;5105291;28;20808;-59
2022/05/28 06:24:15;;;;;;;3.87;0.30;;;13.50;99.90;;;;;;5117652;28;20531;-60
2022/05/28 06:26:42;;;;;;;2.20;0.30;;;13.40;1.00;;;;;;5099624;28;20468;-58
2022/05/28 06:29:08;;;;;;;2.17;0.30;;;13.40;1.00;;;;;;5108105;27;20563;-59
2022/05/28 06:31:37;;;;;;;2.53;0.30;;;13.70;1.00;;;;;;5097765;28;20560;-60
2022/05/28 06:34:03;;;;;;;0.53;0.30;;;13.80;1.00;;;;;;5097670;28;21045;-59
2022/05/28 06:36:30;;;;;;;1.33;0.30;;;14.00;1.00;;;;;;5104975;27;20483;-60
2022/05/28 06:38:57;;;;;;;0.80;0.30;;;14.10;1.00;;;;;;5101614;27;20540;-59
2022/05/28 06:41:24;;;;;;;1.17;0.37;;;14.30;1.00;;;;;;5098926;28;20818;-60
2022/05/28 06:43:52;;;;;;;1.27;0.30;;;14.40;1.00;;;;;;5099492;28;20450;-59
2022/05/28 06:46:19;;;;;;;0.70;0.20;;;14.30;1.00;;;;;;5109493;27;20461;-60
2022/05/28 06:48:47;;;;;;;0.50;0.30;;;14.30;1.00;;;;;;5099282;28;20544;-60
2022/05/28 06:51:14;;;;;;;0.47;0.20;;;14.40;1.00;;;;;;5101876;28;20552;-60
2022/05/28 06:53:43;;;;;;;0.77;0.20;;;14.60;1.00;;;;;;5111146;28;20456;-60
2022/05/28 06:56:11;;;;;;;1.00;0.30;;;14.70;1.00;;;;;;5107230;27;20469;-60
2022/05/28 06:58:43;;;;;;;1.20;0.30;;;14.80;1.00;;;;;;5102170;28;20531;-60
2022/05/28 07:01:10;;;;;;;0.70;0.23;;;14.80;1.00;;;;;;5098978;28;20518;-61
2022/05/28 07:03:43;;;;;;;0.93;0.20;;;14.80;1.00;;;;;;5111487;27;20546;-60
2022/05/28 07:06:13;;;;;;;1.13;0.20;;;14.70;1.00;;;;;;5097872;28;20457;-59
2022/05/28 07:08:42;;;;;;;0.70;0.20;;;14.60;1.00;;;;;;5101433;28;20532;-59
2022/05/28 07:11:12;;;;;;;1.00;0.20;;;14.50;1.00;;;;;;5098615;28;20823;-59
2022/05/28 07:13:40;;;;;;;0.40;0.20;;;14.30;1.00;;;;;;5103236;27;20464;-59
2022/05/28 07:16:08;;;;;;;3.57;0.20;;;14.40;1.00;;;;;;5081746;28;20480;-59
2022/05/28 07:18:36;;;;;;;1.63;0.30;;;14.70;1.00;;;;;;5079177;28;20457;-59
2022/05/28 07:21:03;;;;;;;1.05;0.30;;;14.60;1.00;;;;;;5079020;28;20581;-59
2022/05/28 07:23:32;;;;;;;0.50;0.30;;;14.70;1.00;;;;;;5083138;28;20312;-59
2022/05/28 07:26:00;;;;;;;2.00;0.30;;;14.70;1.00;;;;;;5097149;28;20453;-59
2022/05/28 07:28:27;;;;;;;0.77;0.30;;;14.80;1.00;;;;;;5081862;28;20438;-60
2022/05/28 07:30:58;;;;;;;0.93;0.30;;;15.00;1.00;;;;;;5080917;28;20901;-59
2022/05/28 07:33:26;;;;;;;0.40;0.20;;;15.10;1.00;;;;;;5077792;28;20553;-59
2022/05/28 07:35:57;;;;;;;0.87;0.20;;;15.10;1.00;;;;;;5076299;28;20834;-58
2022/05/28 07:38:28;;;;;;;1.50;0.30;;;15.10;1.00;;;;;;5084926;28;20561;-60
2022/05/28 07:40:57;;;;;;;1.03;0.30;;;15.00;1.00;;;;;;5080597;28;20466;-59
2022/05/28 07:43:24;;;;;;;1.37;0.27;;;15.30;1.00;;;;;;5080587;28;20577;-59
2022/05/28 07:45:52;;;;;;;0.70;0.27;;;15.10;1.00;;;;;;5082729;28;20458;-59
2022/05/28 07:48:19;;;;;;;0.57;0.30;;;14.90;1.00;;;;;;5079731;28;20447;-59
2022/05/28 07:50:46;;;;;;;1.03;0.20;;;15.10;1.00;;;;;;5085627;28;20453;-60
2022/05/28 07:53:13;;;;;;;1.27;0.30;;;15.20;1.00;;;;;;5095333;28;20449;-59
2022/05/28 07:55:41;;;;;;;0.60;0.20;;;15.00;1.00;;;;;;5079666;28;20501;-59
2022/05/28 07:58:11;;;;;;;0.47;0.20;;;15.20;1.00;;;;;;5078851;28;20592;-59
2022/05/28 08:00:41;;;;;;;0.87;0.30;;;15.40;1.00;;;;;;5077669;28;20465;-59
2022/05/28 08:03:08;;;;;;;1.33;0.20;;;15.60;1.00;;;;;;5085837;28;20565;-59
2022/05/28 08:05:36;;;;;;;0.67;0.30;;;15.80;1.00;;;;;;5078657;28;20548;-60
2022/05/28 08:08:04;;;;;;;0.90;0.20;;;15.80;1.00;;;;;;5080103;28;20459;-59
2022/05/28 08:10:31;;;;;;;1.43;0.20;;;15.70;1.00;;;;;;5075358;28;20773;-59
2022/05/28 08:13:01;;;;;;;0.40;0.20;;;15.60;1.00;;;;;;5090735;28;20457;-59
2022/05/28 08:15:29;;;;;;;0.60;0.20;;;15.60;1.00;;;;;;5094859;28;20580;-59
2022/05/28 08:17:57;;;;;;;0.70;0.20;;;15.90;1.00;;;;;;5085807;28;20485;-59
2022/05/28 08:23:08;;;;;;;0.40;0.20;;;15.70;1.00;;;;;;5078161;28;20520;-58
2022/05/28 08:23:10;;;;;;;1.33;0.20;;;15.70;1.00;;;;;;5079579;28;20438;-59
2022/05/28 08:25:39;;;;;;;0.60;0.23;;;15.80;1.00;;;;;;5082935;28;20449;-59
2022/05/28 08:28:06;;;;;;;2.27;0.30;;;15.80;1.00;;;;;;5083437;28;20450;-58
2022/05/28 08:30:34;;;;;;;0.70;0.20;;;16.00;1.00;;;;;;5075258;28;20558;-59
2022/05/28 08:33:02;;;;;;;1.30;0.30;;;16.00;1.00;;;;;;5080852;28;20481;-60
2022/05/28 08:35:29;;;;;;;0.40;0.20;;;16.30;1.00;;;;;;5077450;28;20459;-60
2022/05/28 08:37:56;;;;;;;0.90;0.20;;;16.20;1.00;;;;;;5078819;28;20479;-58
2022/05/28 08:40:24;;;;;;;0.57;0.20;;;16.20;1.00;;;;;;5073863;28;20561;-60
2022/05/28 08:42:51;;;;;;;1.80;0.20;;;16.30;1.00;;;;;;5080378;28;20465;-60
2022/05/28 08:45:21;;;;;;;1.90;0.30;;;16.40;1.00;;;;;;5085133;28;20449;-59
2022/05/28 08:47:54;;;;;;;0.53;0.20;;;16.20;1.00;;;;;;5078781;28;20446;-60
2022/05/28 08:50:22;;;;;;;0.63;0.30;;;16.40;1.00;;;;;;5074879;28;20459;-60
2022/05/28 08:52:59;;;;;;;0.57;0.20;;;16.40;1.00;;;;;;5079123;28;20871;-59
2022/05/28 08:55:28;;;;;;;1.07;0.20;;;16.70;1.00;;;;;;5075049;28;20564;-60
2022/05/28 08:58:00;;;;;;;0.40;0.20;;;16.90;1.00;;;;;;5076603;28;20543;-59
2022/05/28 09:00:34;;;;;;;2.23;0.27;;;17.00;1.00;;;;;;5075639;28;20462;-59
2022/05/28 09:03:07;;;;;;;1.10;0.30;;;16.90;1.00;;;;;;5080507;28;20450;-59
2022/05/28 09:05:43;;;;;;;0.60;0.30;;;17.00;1.00;;;;;;5093033;28;20453;-59
2022/05/28 09:08:12;;;;;;;0.40;0.20;;;16.80;1.00;;;;;;5092540;28;20510;-59
2022/05/28 09:10:48;;;;;;;0.50;0.20;;;16.60;1.00;;;;;;5080445;28;20465;-60
2022/05/28 09:13:25;;;;;;;0.60;0.20;;;16.60;1.00;;;;;;5090989;28;20453;-59
2022/05/28 09:15:53;;;;;;;0.40;0.20;;;16.80;1.00;;;;;;5086688;28;20584;-59
2022/05/28 09:18:22;;;;;;;0.40;0.20;;;17.00;1.00;;;;;;5081295;28;20478;-58
2022/05/28 09:20:51;;;;;;;1.63;0.30;;;17.40;1.00;;;;;;5080165;28;20490;-60
2022/05/28 09:23:17;;;;;;;0.50;0.20;;;17.70;1.00;;;;;;5086715;28;20536;-59
2022/05/28 09:25:46;;;;;;;0.87;0.43;;;17.90;1.00;;;;;;5085020;28;20458;-60
2022/05/28 09:28:30;;;;;;;0.50;0.20;;;18.30;1.00;;;;;;5081019;28;20458;-59
2022/05/28 09:31:07;;;;;;;0.57;0.20;;;18.20;1.00;;;;;;5082678;28;20490;-59
2022/05/28 09:34:01;;;;;;;0.60;0.27;;;18.20;1.00;;;;;;5081151;28;20450;-58
2022/05/28 09:36:37;;;;;;;0.40;0.20;;;17.80;1.00;;;;;;5073694;28;21049;-59
2022/05/28 09:39:12;;;;;;;0.87;0.20;;;17.50;1.00;;;;;;5083620;28;20477;-59
2022/05/28 09:41:52;;;;;;;0.47;0.30;;;17.30;1.00;;;;;;5092302;28;20556;-59
2022/05/28 09:44:29;;;;;;;0.40;0.20;;;17.60;1.00;;;;;;5071725;28;20450;-60
2022/05/28 09:47:06;;;;;;;1.87;0.20;;;17.80;1.00;;;;;;5077088;28;21319;-59
2022/05/28 09:49:35;;;;;;;1.50;0.30;;;17.30;1.00;;;;;;5074413;28;20525;-59
2022/05/28 09:52:08;;;;;;;2.03;0.30;;;17.20;1.00;;;;;;5076454;28;20200;-59
2022/05/28 09:54:36;;;;;;;0.40;0.20;;;17.60;1.00;;;;;;5076953;28;20466;-59
2022/05/28 09:57:09;;;;;;;0.87;0.23;;;17.40;1.00;;;;;;5075010;28;20778;-58
2022/05/28 09:59:47;;;;;;;0.60;0.20;;;17.70;1.00;;;;;;5076581;28;20462;-59
2022/05/28 10:02:18;;;;;;;0.77;0.20;;;18.00;1.00;;;;;;5073893;28;20451;-59
2022/05/28 10:04:51;;;;;;;2.10;0.30;;;18.30;1.00;;;;;;5077812;28;20490;-59
2022/05/28 10:07:30;;;;;;;1.53;0.20;;;18.50;1.00;;;;;;5074730;28;21240;-60
2022/05/28 10:09:57;;;;;;;0.77;0.20;;;18.40;1.00;;;;;;5076684;28;20935;-59
2022/05/28 10:12:28;;;;;;;0.60;0.20;;;18.50;1.00;;;;;;5076124;28;20446;-59
2022/05/28 10:15:04;;;;;;;0.47;0.20;;;18.80;1.00;;;;;;5077661;28;20496;-60
2022/05/28 10:17:32;;;;;;;1.80;0.20;;;18.40;1.00;;;;;;5083329;28;21049;-60
2022/05/28 10:20:02;;;;;;;0.40;0.30;;;18.60;1.00;;;;;;5084564;28;20832;-60
2022/05/28 10:22:31;;;;;;;0.80;0.33;;;18.70;1.00;;;;;;5083344;28;20454;-59
2022/05/28 10:25:04;;;;;;;0.53;0.20;;;18.70;1.00;;;;;;5082576;28;21003;-59
2022/05/28 10:27:47;;;;;;;0.57;0.20;;;18.90;1.00;;;;;;5084347;28;20453;-59
2022/05/28 10:30:26;;;;;;;0.40;0.20;;;18.80;1.00;;;;;;5083666;28;20463;-59
2022/05/28 10:32:54;;;;;;;0.70;0.20;;;19.00;1.00;;;;;;5084164;28;20556;-59
2022/05/28 10:35:25;;;;;;;0.60;0.30;;;19.10;1.00;;;;;;5090046;28;20500;-60
2022/05/28 10:37:52;;;;;;;0.93;0.30;;;18.50;1.00;;;;;;5088772;28;20524;-59
2022/05/28 10:40:23;;;;;;;0.50;0.20;;;18.60;1.00;;;;;;5087651;28;20913;-59
2022/05/28 10:42:53;;;;;;;1.47;0.20;;;18.10;1.00;;;;;;5088186;28;20445;-59
2022/05/28 10:45:21;;;;;;;0.50;0.20;;;18.00;1.00;;;;;;5090288;28;20651;-59
2022/05/28 10:48:03;;;;;;;2.00;0.20;;;18.30;1.00;;;;;;5088757;28;20460;-60
2022/05/28 10:50:41;;;;;;;1.00;0.25;;;18.50;1.00;;;;;;5087755;28;20478;-59
2022/05/28 10:53:19;;;;;;;0.43;0.20;;;18.60;1.00;;;;;;5085826;28;20294;-64
2022/05/28 10:56:02;;;;;;;0.70;0.40;;;18.70;1.00;;;;;;5086895;28;20467;-59
2022/05/28 10:58:43;;;;;;;0.50;0.33;;;19.00;1.00;;;;;;5085402;28;20576;-60
2022/05/28 11:01:27;;;;;;;0.70;0.40;;;19.30;1.00;;;;;;5086775;28;20453;-60
2022/05/28 11:04:30;;;;;;;1.67;0.57;;;19.60;1.00;;;;;;5083625;28;20504;-60
2022/05/28 11:07:32;;;;;;;0.67;0.37;;;19.60;1.00;;;;;;5050258;28;20769;-59
2022/05/28 11:10:19;;;;;;;1.53;0.23;;;19.20;1.00;;;;;;5085086;28;20457;-59
2022/05/28 11:13:07;;;;;;;0.40;0.20;;;19.70;1.00;;;;;;5086036;28;20464;-59
2022/05/28 11:15:59;;;;;;;0.80;0.30;;;19.80;1.00;;;;;;5094777;28;20780;-59
2022/05/28 11:18:47;;;;;;;2.20;0.30;;;20.20;1.00;;;;;;5094020;28;20563;-59
2022/05/28 11:21:35;;;;;;;0.70;0.20;;;20.00;1.00;;;;;;5095943;28;20797;-60
2022/05/28 11:24:33;;;;;;;0.57;0.20;;;20.40;1.00;;;;;;5097421;28;20763;-62
2022/05/28 11:27:07;;;;;;;1.80;0.23;;;20.70;1.00;;;;;;5096399;28;20469;-60
2022/05/28 11:29:50;;;;;;;1.07;0.30;;;20.30;1.00;;;;;;5097026;28;20550;-62
2022/05/28 11:32:22;;;;;;;0.90;0.50;;;20.40;1.00;;;;;;5099177;28;20450;-63
2022/05/28 11:34:55;;;;;;;0.60;0.30;;;20.20;1.00;;;;;;5091974;28;20465;-62
2022/05/28 11:37:27;;;;;;;1.77;0.30;;;20.40;1.00;;;;;;5085013;28;20446;-63
2022/05/28 11:39:59;;;;;;;0.77;0.20;;;21.00;1.00;;;;;;5090583;28;20452;-62
2022/05/28 11:42:33;;;;;;;0.80;0.20;;;21.30;1.00;;;;;;5090043;28;20545;-63
2022/05/28 11:45:04;;;;;;;0.43;0.20;;;21.40;1.00;;;;;;5074082;28;20568;-63
2022/05/28 11:47:45;;;;;;;0.73;0.20;;;21.30;1.00;;;;;;5079030;28;20544;-63
2022/05/28 11:53:13;;;;;;;0.93;0.30;;;20.60;1.00;;;;;;5090968;28;20441;-63
2022/05/28 11:55:45;;;;;;;0.90;0.30;;;20.50;1.00;;;;;;5091781;28;20550;-63
2022/05/28 11:58:17;;;;;;;0.80;0.20;;;20.70;1.00;;;;;;5091232;28;20524;-61
2022/05/28 12:00:50;;;;;;;0.47;0.20;;;20.70;1.00;;;;;;5091842;28;20552;-61
2022/05/28 12:03:21;;;;;;;0.80;0.20;;;20.70;1.00;;;;;;5077321;28;20549;-61
2022/05/28 12:05:52;;;;;;;0.70;0.20;;;21.30;1.00;;;;;;5086245;28;20464;-63
2022/05/28 12:08:26;;;;;;;0.57;0.20;;;21.50;1.00;;;;;;5075665;28;20486;-61
2022/05/28 12:10:57;;;;;;;0.60;0.30;;;21.20;1.00;;;;;;5079296;28;20458;-62
2022/05/28 12:13:46;;;;;;;0.33;0.20;;;21.20;1.00;;;;;;5074390;28;20457;-62
2022/05/28 12:16:27;;;;;;;0.40;0.20;;;20.90;1.00;;;;;;5075507;28;20879;-61
2022/05/28 12:18:59;;;;;;;0.60;0.20;;;20.90;1.00;;;;;;5075569;28;20504;-62
2022/05/28 12:21:27;;;;;;;0.43;0.23;;;21.00;1.00;;;;;;5085598;28;20458;-61
2022/05/28 12:24:07;;;;;;;0.30;0.20;;;20.90;1.00;;;;;;5081384;28;20447;-62
2022/05/28 12:26:48;;;;;;;0.70;0.20;;;20.70;1.00;;;;;;5079916;28;20466;-62
2022/05/28 12:29:29;;;;;;;0.40;0.20;;;20.30;1.00;;;;;;5077742;28;20461;-62
2022/05/28 12:31:56;;;;;;;0.50;0.30;;;20.10;1.00;;;;;;5079394;28;20462;-62
2022/05/28 12:34:28;;;;;;;0.50;0.30;;;20.00;1.00;;;;;;5084408;28;20460;-62
2022/05/28 12:36:57;;;;;;;0.73;0.20;;;20.10;1.00;;;;;;5077322;28;20758;-61
2022/05/28 12:39:36;;;;;;;0.50;0.20;;;20.10;1.00;;;;;;5075280;28;20579;-61
2022/05/28 12:42:18;;;;;;;1.17;0.20;;;19.90;1.00;;;;;;5077410;28;20443;-61
2022/05/28 12:44:50;;;;;;;0.90;0.40;;;20.00;1.00;;;;;;5079712;28;21003;-62
2022/05/28 12:47:25;;;;;;;1.13;0.30;;;20.40;1.00;;;;;;5076644;28;20458;-61
2022/05/28 12:49:58;;;;;;;2.00;0.30;;;20.40;1.00;;;;;;5078244;28;20462;-63
2022/05/28 12:52:34;;;;;;;1.67;0.30;;;20.60;1.00;;;;;;5089132;28;20553;-64
2022/05/28 12:55:06;;;;;;;0.40;0.20;;;20.30;1.00;;;;;;5085405;28;20455;-63
2022/05/28 12:57:37;;;;;;;0.60;0.30;;;19.30;1.00;;;;;;5080834;28;20927;-63
2022/05/28 13:00:09;;;;;;;2.10;0.23;;;19.50;1.00;;;;;;5072926;28;20925;-63
2022/05/28 13:02:42;;;;;;;0.30;0.20;;;20.00;1.00;;;;;;5072754;28;20548;-62
2022/05/28 13:05:14;;;;;;;0.50;0.30;;;20.60;1.00;;;;;;5081022;28;20468;-61
2022/05/28 13:07:48;;;;;;;0.50;0.20;;;21.20;1.00;;;;;;5077056;28;20947;-61
2022/05/28 13:10:18;;;;;;;2.43;0.30;;;21.70;1.00;;;;;;5073537;28;20513;-61
2022/05/28 13:12:57;;;;;;;0.80;0.30;;;22.20;1.00;;;;;;5079310;28;20533;-63
2022/05/28 13:16:16;;;;;;;0.53;0.23;;;22.90;1.00;;;;;;5074598;28;20494;-63